Time;durP1;ratioP1;P1;durP2;ratioP2;P2;SDS_P1;SDS_P2;PMS_P1;PMS_P2;Temp;Humidity;BMP_temperature;BMP_pressure;BME280_temperature;BME280_humidity;BME280_pressure;Samples;Min_cycle;Max_cycle;Signal;HPM_P1;HPM_P2
2023/03/30 00:00:16;;;;;;;5.10;2.10;;;9.20;99.90;;;9.73;100.00;97609.41;4980253;28;20460;-79
2023/03/30 00:02:49;;;;;;;5.20;2.33;;;9.10;99.90;;;9.72;100.00;97609.63;4986340;28;20555;-79
2023/03/30 00:05:22;;;;;;;10.53;2.40;;;9.10;99.90;;;9.69;100.00;97607.38;4981453;28;20483;-79
2023/03/30 00:07:52;;;;;;;6.50;2.30;;;9.10;99.90;;;9.70;100.00;97617.63;4991782;28;21127;-79
2023/03/30 00:10:22;;;;;;;17.77;2.87;;;9.10;99.90;;;9.69;100.00;97613.41;4988016;28;20521;-79
2023/03/30 00:12:52;;;;;;;4.37;2.13;;;9.00;99.90;;;9.68;100.00;97617.03;4988262;28;20488;-79
2023/03/30 00:15:24;;;;;;;7.83;2.30;;;9.00;99.90;;;9.65;100.00;97611.38;4987516;28;20971;-79
2023/03/30 00:17:54;;;;;;;4.10;1.80;;;8.90;99.90;;;9.63;100.00;97598.50;4983768;28;20962;-79
2023/03/30 00:20:24;;;;;;;4.57;2.40;;;8.90;99.90;;;9.65;100.00;97603.56;4980462;28;20465;-78
2023/03/30 00:22:54;;;;;;;6.67;2.07;;;8.90;99.90;;;9.58;100.00;97600.88;4993111;28;20460;-79
2023/03/30 00:25:23;;;;;;;14.90;2.60;;;8.90;99.90;;;9.58;100.00;97600.88;4981947;28;20558;-79
2023/03/30 00:27:54;;;;;;;3.00;2.40;;;8.90;99.90;;;9.55;100.00;97612.50;4983073;28;20456;-79
2023/03/30 00:30:25;;;;;;;8.30;2.27;;;8.90;99.90;;;9.54;100.00;97608.28;4990331;28;21301;-78
2023/03/30 00:32:56;;;;;;;4.80;1.67;;;9.00;99.90;;;9.54;100.00;97608.28;4980602;28;20499;-79
2023/03/30 00:35:29;;;;;;;8.03;2.20;;;8.90;99.90;;;9.56;100.00;97611.53;4985696;28;20951;-79
2023/03/30 00:38:02;;;;;;;5.63;2.33;;;8.80;99.90;;;9.56;100.00;97614.13;4986050;28;20457;-79
2023/03/30 00:40:33;;;;;;;10.83;2.40;;;8.90;99.90;;;9.56;100.00;97608.91;4978405;28;20950;-78
2023/03/30 00:43:10;;;;;;;7.63;2.17;;;8.90;99.90;;;9.55;100.00;97612.50;4978638;28;20471;-79
2023/03/30 00:45:42;;;;;;;5.27;2.20;;;8.90;99.90;;;9.56;100.00;97613.31;4984122;28;20517;-79
2023/03/30 00:48:17;;;;;;;7.37;2.00;;;8.90;99.90;;;9.56;100.00;97624.56;4994397;28;20475;-79
2023/03/30 00:50:53;;;;;;;7.87;2.50;;;8.90;99.90;;;9.57;100.00;97625.38;4999415;28;20499;-79
2023/03/30 00:53:27;;;;;;;5.27;2.37;;;8.90;99.90;;;9.57;100.00;97620.97;4993838;28;20502;-79
2023/03/30 00:55:59;;;;;;;4.90;2.30;;;9.00;99.90;;;9.57;100.00;97618.38;4987400;28;20478;-79
2023/03/30 00:58:31;;;;;;;4.17;1.77;;;8.90;99.90;;;9.59;100.00;97621.59;4987258;28;20468;-79
2023/03/30 01:01:06;;;;;;;4.57;1.80;;;8.90;99.90;;;9.59;100.00;97624.19;5004382;28;20468;-79
2023/03/30 01:03:42;;;;;;;4.07;2.00;;;8.90;99.90;;;9.59;100.00;97633.81;4994159;28;20459;-79
2023/03/30 01:06:16;;;;;;;7.20;2.10;;;8.90;99.90;;;9.62;100.00;97630.81;4992394;28;20464;-79
2023/03/30 01:08:48;;;;;;;7.20;2.50;;;9.00;99.90;;;9.62;100.00;97623.00;4992002;28;21206;-78
2023/03/30 01:11:18;;;;;;;6.63;2.53;;;9.00;99.90;;;9.62;100.00;97628.22;4995294;28;20524;-79
2023/03/30 01:13:54;;;;;;;3.30;2.17;;;9.00;99.90;;;9.65;100.00;97625.22;4993627;28;20546;-79
2023/03/30 01:16:37;;;;;;;5.07;2.20;;;9.00;99.90;;;9.67;100.00;97632.88;4997481;28;20470;-78
2023/03/30 01:19:42;;;;;;;7.50;2.00;;;9.00;99.90;;;9.66;100.00;97629.44;4990409;28;20875;-79
2023/03/30 01:23:14;;;;;;;9.07;2.40;;;9.00;99.90;;;9.72;100.00;97596.56;4991506;28;20471;-78
2023/03/30 01:26:26;;;;;;;3.90;1.80;;;9.10;99.90;;;9.72;100.00;97596.56;4984757;28;20508;-78
2023/03/30 01:29:07;;;;;;;8.57;2.23;;;9.10;99.90;;;9.72;100.00;97618.22;4979574;28;20467;-79
2023/03/30 01:32:35;;;;;;;9.50;6.03;;;9.10;99.90;;;9.76;100.00;97634.31;4981411;28;20670;-79
2023/03/30 01:35:40;;;;;;;8.30;1.93;;;9.20;99.90;;;9.78;100.00;97632.34;4943669;28;20500;-79
2023/03/30 01:38:55;;;;;;;4.27;2.50;;;9.10;99.90;;;9.79;100.00;97613.84;4980631;28;20575;-78
2023/03/30 01:41:36;;;;;;;6.23;2.00;;;9.10;99.90;;;9.81;100.00;97606.66;4985333;28;20551;-79
2023/03/30 01:44:15;;;;;;;3.60;2.33;;;9.10;99.90;;;9.78;100.00;97611.47;4983444;28;20465;-79
2023/03/30 01:46:51;;;;;;;10.90;2.10;;;9.20;99.90;;;9.81;100.00;97600.63;4994747;28;20471;-79
2023/03/30 01:49:30;;;;;;;7.10;2.57;;;9.20;99.90;;;9.81;100.00;97590.19;4991816;28;21337;-79
2023/03/30 01:52:12;;;;;;;5.60;1.93;;;9.20;99.90;;;9.83;100.00;97577.72;4991370;28;20497;-79
2023/03/30 01:54:50;;;;;;;4.50;1.97;;;9.20;99.90;;;9.82;100.00;97579.53;4985538;28;20973;-78
2023/03/30 01:57:27;;;;;;;9.77;1.93;;;9.20;99.90;;;9.83;100.00;97580.34;4988111;28;20566;-79
2023/03/30 02:00:05;;;;;;;27.33;1.70;;;9.20;99.90;;;9.85;100.00;97596.63;4987676;28;20515;-79
2023/03/30 02:02:36;;;;;;;7.73;2.60;;;9.20;99.90;;;9.87;100.00;97613.72;4984733;28;20468;-79
2023/03/30 02:05:09;;;;;;;4.77;1.90;;;9.30;99.90;;;9.89;100.00;97605.69;4989742;28;20496;-79
2023/03/30 02:07:41;;;;;;;5.30;2.30;;;9.30;99.90;;;9.90;100.00;97612.50;4991105;28;20564;-79
2023/03/30 02:10:14;;;;;;;4.60;1.50;;;9.30;99.90;;;9.89;100.00;97623.97;4987478;28;20510;-79
2023/03/30 02:12:46;;;;;;;8.90;2.37;;;9.20;99.90;;;9.90;100.00;97641.25;4988861;28;20532;-78
2023/03/30 02:15:18;;;;;;;6.03;1.93;;;9.20;99.90;;;9.92;100.00;97649.72;4988168;28;20464;-79
2023/03/30 02:17:48;;;;;;;6.10;3.53;;;9.20;99.90;;;9.93;100.00;97653.91;4990226;28;20450;-79
2023/03/30 02:20:19;;;;;;;3.60;1.60;;;9.20;99.90;;;9.94;100.00;97664.19;4988534;28;20472;-79
2023/03/30 02:22:49;;;;;;;2.47;1.60;;;9.30;99.90;;;9.94;100.00;97663.38;4988095;28;20532;-80
2023/03/30 02:25:19;;;;;;;93.17;39.50;;;9.30;99.90;;;9.96;100.00;97666.63;4980505;28;20465;-80
2023/03/30 02:27:50;;;;;;;8.17;2.80;;;9.30;99.90;;;9.98;100.00;97654.16;4992412;28;20464;-79
2023/03/30 02:30:20;;;;;;;4.77;2.30;;;9.40;99.90;;;9.99;100.00;97658.38;4983813;28;20989;-79
2023/03/30 02:32:54;;;;;;;12.60;2.90;;;9.30;99.90;;;9.99;100.00;97661.81;4990686;28;20500;-79
2023/03/30 02:35:49;;;;;;;5.00;2.07;;;9.40;99.90;;;10.03;100.00;97643.94;4981700;28;20491;-75
2023/03/30 02:38:51;;;;;;;17.60;3.20;;;9.40;99.90;;;10.05;100.00;97613.19;4998579;28;20548;-79
2023/03/30 02:41:53;;;;;;;6.83;2.57;;;9.50;99.90;;;10.06;100.00;97612.22;4989767;28;20468;-79
2023/03/30 02:44:40;;;;;;;6.67;3.27;;;9.40;99.90;;;10.05;100.00;97605.38;4983433;28;20467;-79
2023/03/30 02:47:22;;;;;;;5.00;2.37;;;9.50;99.90;;;10.03;100.00;97602.16;4997128;28;20975;-79
2023/03/30 02:50:01;;;;;;;4.70;2.10;;;9.50;99.90;;;10.05;100.00;97607.97;4991973;28;20468;-79
2023/03/30 02:52:49;;;;;;;7.23;2.23;;;9.50;99.90;;;10.07;100.00;97590.28;4995543;28;20998;-79
2023/03/30 02:55:25;;;;;;;3.20;1.83;;;9.50;99.90;;;10.09;100.00;97556.97;4989771;28;20571;-78
2023/03/30 02:58:06;;;;;;;8.37;4.10;;;9.40;99.90;;;10.09;100.00;97546.50;4988524;28;21207;-78
2023/03/30 03:00:45;;;;;;;4.27;2.43;;;9.40;99.90;;;10.09;100.00;97530.84;4987631;28;20811;-79
2023/03/30 03:03:24;;;;;;;9.33;3.70;;;9.50;99.90;;;10.09;100.00;97530.84;4986753;28;20460;-78
2023/03/30 03:05:55;;;;;;;6.37;2.40;;;9.40;99.90;;;10.09;100.00;97521.19;4992461;28;20562;-78
2023/03/30 03:08:26;;;;;;;10.63;2.50;;;9.40;99.90;;;10.11;100.00;97518.38;4986448;28;20473;-78
2023/03/30 03:10:57;;;;;;;6.70;2.20;;;9.40;99.90;;;10.10;100.00;97525.41;4984642;28;20452;-78
2023/03/30 03:13:27;;;;;;;5.10;1.90;;;9.40;99.90;;;10.10;100.00;97517.56;4985803;28;20496;-78
2023/03/30 03:16:00;;;;;;;16.77;2.30;;;9.50;99.90;;;10.09;100.00;97515.97;4991609;28;20546;-75
2023/03/30 03:18:33;;;;;;;15.73;3.60;;;9.40;99.90;;;10.09;100.00;97515.16;4988924;28;20491;-78
2023/03/30 03:21:06;;;;;;;9.40;4.03;;;9.40;99.90;;;10.09;100.00;97502.09;4985948;28;20460;-78
2023/03/30 03:23:36;;;;;;;3.87;2.13;;;9.40;99.90;;;10.08;100.00;97503.09;4996282;28;20995;-78
2023/03/30 03:26:06;;;;;;;8.23;1.83;;;9.40;99.90;;;10.07;100.00;97497.06;4986474;28;20469;-79
2023/03/30 03:28:37;;;;;;;9.07;2.57;;;9.40;99.90;;;10.08;100.00;97490.84;4988444;28;20464;-78
2023/03/30 03:31:08;;;;;;;14.10;2.60;;;9.40;99.90;;;10.08;100.00;97483.00;4982756;28;20476;-78
2023/03/30 03:33:38;;;;;;;4.60;2.10;;;9.50;99.90;;;10.07;100.00;97489.22;4987197;28;20500;-78
2023/03/30 03:36:10;;;;;;;12.70;2.20;;;9.50;99.90;;;10.08;100.00;97487.41;4980826;28;20595;-78
2023/03/30 03:38:41;;;;;;;7.80;2.93;;;9.40;99.90;;;10.05;100.00;97490.44;4988006;28;20467;-78
2023/03/30 03:41:12;;;;;;;13.20;2.20;;;9.40;99.90;;;10.06;100.00;97505.09;4982142;28;20464;-78
2023/03/30 03:43:41;;;;;;;11.07;2.80;;;9.40;99.90;;;10.07;100.00;97510.13;4979609;28;20464;-76
2023/03/30 03:46:12;;;;;;;7.40;2.83;;;9.40;99.90;;;10.09;100.00;97499.50;4987915;28;20457;-78
2023/03/30 03:48:43;;;;;;;6.50;2.23;;;9.50;99.90;;;10.08;100.00;97497.88;4987740;28;20461;-78
2023/03/30 03:51:13;;;;;;;10.43;3.77;;;9.50;99.90;;;10.06;100.00;97479.78;4986015;28;20543;-78
2023/03/30 03:53:43;;;;;;;8.50;2.80;;;9.50;99.90;;;10.07;100.00;97491.03;4989915;28;20536;-78
2023/03/30 03:56:13;;;;;;;8.97;3.10;;;9.40;99.90;;;10.07;100.00;97497.06;4983556;28;20460;-78
2023/03/30 03:58:42;;;;;;;11.20;3.07;;;9.40;99.90;;;10.08;100.00;97490.84;4982371;28;20901;-78
2023/03/30 04:01:14;;;;;;;12.57;2.93;;;9.40;99.90;;;10.09;100.00;97520.38;4989828;28;20465;-78
2023/03/30 04:03:43;;;;;;;7.30;2.77;;;9.40;99.90;;;10.10;100.00;97522.78;4987207;28;20456;-78
2023/03/30 04:06:13;;;;;;;10.53;3.17;;;9.40;99.90;;;10.13;100.00;97532.84;4988690;28;20468;-78
2023/03/30 04:08:44;;;;;;;17.60;2.70;;;9.50;99.90;;;10.17;100.00;97507.16;4991356;28;20459;-78
2023/03/30 04:11:14;;;;;;;7.57;3.43;;;9.60;99.90;;;10.17;100.00;97490.69;4976350;28;21016;-78
2023/03/30 04:13:43;;;;;;;7.90;2.63;;;9.50;99.90;;;10.19;100.00;97489.50;4989413;28;20591;-78
2023/03/30 04:16:15;;;;;;;10.30;4.53;;;9.50;99.90;;;10.17;100.00;97475.81;4984207;28;20465;-78
2023/03/30 04:18:45;;;;;;;8.10;3.37;;;9.60;99.90;;;10.19;100.00;97471.19;4995618;28;20833;-78
2023/03/30 04:21:16;;;;;;;8.70;3.23;;;9.60;99.90;;;10.17;100.00;97456.75;4980121;28;20592;-79
2023/03/30 04:23:47;;;;;;;11.87;3.57;;;9.60;99.90;;;10.16;100.00;97453.31;4985813;28;20477;-78
2023/03/30 04:26:17;;;;;;;13.93;2.80;;;9.60;99.90;;;10.16;100.00;97469.00;4990379;28;20488;-76
2023/03/30 04:28:47;;;;;;;15.17;4.80;;;9.50;99.90;;;10.16;100.00;97478.63;4986198;28;20530;-78
2023/03/30 04:31:21;;;;;;;8.13;3.10;;;9.60;99.90;;;10.17;100.00;97481.03;4984924;28;20479;-79
2023/03/30 04:33:53;;;;;;;12.97;3.00;;;9.50;99.90;;;10.20;100.00;97495.53;4977191;28;20491;-79
2023/03/30 04:36:23;;;;;;;7.40;2.87;;;9.60;99.90;;;10.21;100.00;97500.53;4983783;28;20465;-79
2023/03/30 04:38:58;;;;;;;9.73;3.20;;;9.60;99.90;;;10.25;100.00;97501.75;4992658;28;20556;-78
2023/03/30 04:41:32;;;;;;;8.87;2.83;;;9.70;99.90;;;10.26;100.00;97515.63;4991566;28;20974;-78
2023/03/30 04:44:05;;;;;;;4.60;2.40;;;9.70;99.90;;;10.28;100.00;97524.06;4991808;28;20551;-78
2023/03/30 04:46:36;;;;;;;11.63;2.30;;;9.60;99.90;;;10.28;100.00;97513.63;4980959;28;21115;-78
2023/03/30 04:49:06;;;;;;;13.53;2.50;;;9.70;99.90;;;10.30;100.00;97514.25;4987646;28;20490;-78
2023/03/30 04:51:36;;;;;;;5.80;2.50;;;9.70;99.90;;;10.34;100.00;97518.06;4983644;28;20485;-78
2023/03/30 04:54:06;;;;;;;13.40;2.90;;;9.70;99.90;;;10.36;100.00;97522.09;4991962;28;21060;-78
2023/03/30 04:56:36;;;;;;;14.77;2.67;;;9.80;99.90;;;10.40;100.00;97530.34;4988475;28;20464;-78
2023/03/30 04:59:06;;;;;;;7.30;2.90;;;9.80;99.90;;;10.43;100.00;97538.59;4979381;28;20487;-78
2023/03/30 05:01:37;;;;;;;10.33;3.60;;;9.90;99.90;;;10.43;100.00;97543.81;4976421;28;20464;-78
2023/03/30 05:04:07;;;;;;;11.33;3.33;;;9.80;99.90;;;10.42;100.00;97526.50;4984958;28;20472;-78
2023/03/30 05:06:38;;;;;;;14.53;3.80;;;9.90;99.90;;;10.43;100.00;97517.69;4975272;28;20465;-78
2023/03/30 05:09:08;;;;;;;15.97;3.70;;;9.90;99.90;;;10.44;100.00;97515.88;4975031;28;20465;-78
2023/03/30 05:11:38;;;;;;;3.87;2.50;;;9.90;99.90;;;10.46;100.00;97517.28;4976676;28;20465;-78
2023/03/30 05:14:08;;;;;;;11.63;3.00;;;9.90;99.90;;;10.51;100.00;97519.31;4982396;28;20493;-78
2023/03/30 05:16:40;;;;;;;13.23;3.10;;;9.90;99.90;;;10.55;100.00;97530.97;4982231;28;20898;-78
2023/03/30 05:19:09;;;;;;;9.10;2.63;;;9.90;99.90;;;10.57;100.00;97529.75;4980695;28;20496;-78
2023/03/30 05:21:40;;;;;;;8.80;3.40;;;9.90;99.90;;;10.65;100.00;97535.81;4983376;28;20952;-78
2023/03/30 05:24:13;;;;;;;8.73;2.90;;;10.10;99.90;;;10.74;100.00;97539.81;4982757;28;20464;-78
2023/03/30 05:26:44;;;;;;;8.53;2.50;;;10.20;99.90;;;10.77;100.00;97545.47;4993040;28;20472;-77
2023/03/30 05:29:16;;;;;;;11.03;2.27;;;10.20;99.90;;;10.83;100.00;97533.41;4990530;28;20476;-78
2023/03/30 05:31:47;;;;;;;8.50;2.60;;;10.30;99.90;;;10.91;100.00;97525.34;4982089;28;21035;-78
2023/03/30 05:34:16;;;;;;;11.40;2.77;;;10.40;99.90;;;10.97;100.00;97533.19;4983242;28;21072;-78
2023/03/30 05:36:46;;;;;;;3.23;2.33;;;10.30;99.90;;;11.01;100.00;97528.34;4992556;28;20584;-78
2023/03/30 05:39:16;;;;;;;9.23;2.10;;;10.40;99.90;;;11.09;100.00;97517.69;4990956;28;20471;-78
2023/03/30 05:41:47;;;;;;;13.87;2.87;;;10.60;99.90;;;11.10;100.00;97504.41;4994115;28;20479;-78
2023/03/30 05:44:17;;;;;;;6.10;3.07;;;10.50;99.90;;;11.15;100.00;97516.88;4996351;28;20493;-78
2023/03/30 05:46:51;;;;;;;5.37;2.40;;;10.70;99.90;;;11.15;100.00;97532.56;4987731;28;20461;-78
2023/03/30 05:49:21;;;;;;;24.03;3.30;;;10.70;99.90;;;11.17;100.00;97532.38;4985019;28;20534;-78
2023/03/30 05:51:50;;;;;;;10.27;4.70;;;10.60;99.90;;;11.18;100.00;97545.25;4990127;28;20485;-78
2023/03/30 05:54:21;;;;;;;4.13;2.60;;;10.60;99.90;;;11.21;100.00;97552.69;4993046;28;20533;-78
2023/03/30 05:56:50;;;;;;;10.33;2.77;;;10.70;99.90;;;11.22;100.00;97545.66;4992494;28;20488;-78
2023/03/30 05:59:21;;;;;;;8.43;3.53;;;10.70;99.90;;;11.21;100.00;97547.44;4995255;28;20476;-78
2023/03/30 06:01:53;;;;;;;11.70;2.60;;;10.60;99.90;;;11.22;100.00;97541.22;4986037;28;20473;-78
2023/03/30 06:04:23;;;;;;;6.83;3.03;;;10.70;99.90;;;11.25;100.00;97540.81;4984225;28;20460;-78
2023/03/30 06:06:53;;;;;;;13.27;3.93;;;10.70;99.90;;;11.26;100.00;97533.75;4986862;28;20488;-78
2023/03/30 06:09:25;;;;;;;12.13;2.83;;;10.70;99.90;;;11.25;100.00;97532.97;4988574;28;20473;-78
2023/03/30 06:11:56;;;;;;;5.90;2.57;;;10.70;99.90;;;11.28;100.00;97537.00;4982318;28;20971;-78
2023/03/30 06:14:25;;;;;;;5.53;2.40;;;10.70;99.90;;;11.28;100.00;97540.41;4984848;28;20896;-78
2023/03/30 06:16:57;;;;;;;11.33;3.40;;;10.70;99.90;;;11.32;100.00;97538.97;4984891;28;20467;-78
2023/03/30 06:19:27;;;;;;;5.37;2.50;;;10.80;99.90;;;11.33;100.00;97537.19;4985951;28;20468;-78
2023/03/30 06:21:58;;;;;;;12.60;3.30;;;10.80;99.90;;;11.35;100.00;97514.25;4983024;28;20505;-78
2023/03/30 06:24:27;;;;;;;7.23;2.90;;;10.80;99.90;;;11.36;100.00;97521.88;4992873;28;20477;-78
2023/03/30 06:27:00;;;;;;;9.33;3.13;;;10.80;99.90;;;11.38;100.00;97525.09;4990527;28;20987;-78
2023/03/30 06:29:30;;;;;;;8.50;3.20;;;10.80;99.90;;;11.39;100.00;97518.84;4993017;28;20473;-78
2023/03/30 06:32:03;;;;;;;10.20;2.97;;;10.80;99.90;;;11.40;100.00;97514.41;4991889;28;20476;-78
2023/03/30 06:34:34;;;;;;;9.80;2.40;;;10.80;99.90;;;11.41;100.00;97537.78;4991440;28;21201;-78
2023/03/30 06:37:03;;;;;;;8.90;2.93;;;10.80;99.90;;;11.42;100.00;97526.28;4987670;28;20491;-78
2023/03/30 06:39:36;;;;;;;13.13;3.13;;;10.90;99.90;;;11.45;100.00;97517.22;4993770;28;21058;-78
2023/03/30 06:42:07;;;;;;;4.73;2.47;;;10.90;99.90;;;11.48;100.00;97506.34;4988930;28;20478;-78
2023/03/30 06:44:36;;;;;;;11.67;2.90;;;10.90;99.90;;;11.50;100.00;97499.06;4995624;28;20460;-78
2023/03/30 06:47:08;;;;;;;10.30;3.80;;;11.00;99.90;;;11.53;100.00;97488.19;4989554;28;20486;-78
2023/03/30 06:49:37;;;;;;;6.17;3.60;;;11.00;99.90;;;11.53;100.00;97496.84;4988105;28;20511;-78
2023/03/30 06:52:07;;;;;;;5.43;3.40;;;11.00;99.90;;;11.55;100.00;97520.22;4992109;28;20539;-78
2023/03/30 06:54:37;;;;;;;3.90;3.10;;;11.00;99.90;;;11.58;100.00;97532.91;4985613;28;20505;-78
2023/03/30 06:57:08;;;;;;;4.47;2.50;;;11.10;99.90;;;11.59;100.00;97545.78;4989621;28;20526;-78
2023/03/30 06:59:36;;;;;;;6.47;2.83;;;11.00;99.90;;;11.61;100.00;97537.72;4986700;28;20464;-78
2023/03/30 07:02:14;;;;;;;5.27;3.47;;;11.10;99.90;;;11.63;100.00;97546.16;4985077;28;20503;-78
2023/03/30 07:04:45;;;;;;;7.27;2.63;;;11.10;99.90;;;11.63;100.00;97536.50;4994950;28;20468;-78
2023/03/30 07:07:15;;;;;;;3.73;2.40;;;11.10;99.90;;;11.66;100.00;97526.63;4996570;28;20470;-78
2023/03/30 07:09:44;;;;;;;11.10;3.03;;;11.10;99.90;;;11.65;100.00;97525.81;4993844;28;20556;-77
2023/03/30 07:12:14;;;;;;;6.20;2.80;;;11.10;99.90;;;11.68;100.00;97514.13;4993974;28;20502;-78
2023/03/30 07:14:44;;;;;;;6.80;3.07;;;11.10;99.90;;;11.70;100.00;97515.53;4991214;28;20492;-78
2023/03/30 07:17:14;;;;;;;6.23;2.60;;;11.20;99.90;;;11.72;100.00;97503.06;4996260;28;20513;-78
2023/03/30 07:19:43;;;;;;;3.83;2.40;;;11.20;99.90;;;11.75;100.00;97486.13;4994027;28;20461;-78
2023/03/30 07:22:14;;;;;;;8.33;2.67;;;11.20;99.90;;;11.77;100.00;97458.69;4991144;28;20477;-78
2023/03/30 07:24:44;;;;;;;4.70;2.60;;;11.30;99.90;;;11.81;100.00;97501.81;4993537;28;20518;-78
2023/03/30 07:27:15;;;;;;;8.87;2.87;;;11.30;99.90;;;11.83;100.00;97514.72;4990613;28;20473;-78
2023/03/30 07:29:44;;;;;;;4.30;2.90;;;11.30;99.90;;;11.89;100.00;97522.53;4994355;28;20522;-78
2023/03/30 07:32:16;;;;;;;6.27;2.33;;;11.40;99.90;;;11.92;100.00;97529.19;4990830;28;20469;-78
2023/03/30 07:34:47;;;;;;;12.60;2.90;;;11.40;99.90;;;11.94;100.00;97517.47;4986341;28;21025;-78
2023/03/30 07:37:17;;;;;;;4.70;2.30;;;11.40;99.90;;;11.95;100.00;97513.03;4984099;28;20468;-78
2023/03/30 07:39:48;;;;;;;6.30;2.77;;;11.40;99.90;;;12.01;100.00;97509.56;4980032;28;20468;-78
2023/03/30 07:42:19;;;;;;;6.53;2.67;;;11.50;99.90;;;12.07;100.00;97524.47;4986556;28;20563;-78
2023/03/30 07:44:50;;;;;;;5.43;2.50;;;11.50;99.90;;;12.09;100.00;97533.75;4981988;28;20906;-78
2023/03/30 07:47:21;;;;;;;7.20;2.63;;;11.50;99.90;;;12.16;100.00;97536.31;4979528;28;20579;-78
2023/03/30 07:49:51;;;;;;;3.83;2.07;;;11.60;99.90;;;12.24;100.00;97527.41;4977947;28;20515;-78
2023/03/30 07:52:22;;;;;;;6.90;1.90;;;11.80;99.90;;;12.27;100.00;97538.28;4984978;28;20463;-78
2023/03/30 07:54:53;;;;;;;3.77;2.33;;;11.70;99.90;;;12.37;100.00;97530.75;4982823;28;21447;-78
2023/03/30 07:57:22;;;;;;;4.43;2.27;;;11.80;99.90;;;12.46;100.00;97526.09;4986635;28;20545;-78
2023/03/30 07:59:53;;;;;;;9.63;3.13;;;12.00;99.90;;;12.54;100.00;97524.00;4976672;28;20465;-78
2023/03/30 08:02:25;;;;;;;4.90;2.33;;;12.10;99.90;;;12.63;100.00;97526.38;4984248;28;20514;-78
2023/03/30 08:04:55;;;;;;;5.00;2.47;;;12.10;99.90;;;12.68;100.00;97529.16;4983188;28;20480;-78
2023/03/30 08:07:27;;;;;;;7.43;2.13;;;12.20;99.90;;;12.69;100.00;97525.50;4989812;28;20984;-78
2023/03/30 08:09:57;;;;;;;3.50;2.00;;;12.20;99.90;;;12.70;100.00;97546.31;4987073;28;20837;-78
2023/03/30 08:12:26;;;;;;;3.90;2.47;;;12.20;99.90;;;12.76;100.00;97536.78;4972680;28;20580;-78
2023/03/30 08:14:56;;;;;;;10.50;2.17;;;12.30;99.90;;;12.75;100.00;97564.00;4990083;28;20484;-78
2023/03/30 08:17:27;;;;;;;6.30;2.03;;;12.30;99.90;;;12.78;100.00;97566.22;4988857;28;20582;-78
2023/03/30 08:19:57;;;;;;;7.10;2.27;;;12.30;99.90;;;12.78;100.00;97567.00;4991753;28;20464;-78
2023/03/30 08:22:28;;;;;;;3.60;2.00;;;12.30;99.90;;;12.76;100.00;97563.81;4992997;28;20555;-78
2023/03/30 08:24:59;;;;;;;3.00;2.13;;;12.40;99.90;;;12.75;100.00;97577.13;4992891;28;20475;-78
2023/03/30 08:27:29;;;;;;;18.13;2.40;;;12.30;99.90;;;12.74;100.00;97560.56;4982010;28;20469;-77
2023/03/30 08:29:59;;;;;;;3.83;2.27;;;12.30;99.90;;;12.77;100.00;97556.75;4997034;28;20469;-78
2023/03/30 08:32:31;;;;;;;15.53;2.07;;;12.30;99.90;;;12.76;100.00;97544.63;4998179;28;20846;-78
2023/03/30 08:35:01;;;;;;;4.93;2.40;;;12.30;99.90;;;12.76;100.00;97544.63;4987250;28;20850;-77
2023/03/30 08:37:32;;;;;;;3.03;1.80;;;12.20;99.90;;;12.79;100.00;97533.72;4986444;28;20540;-78
2023/03/30 08:40:02;;;;;;;4.17;2.00;;;12.30;99.90;;;12.78;100.00;97545.22;4990472;28;20468;-78
2023/03/30 08:43:35;;;;;;;3.60;2.10;;;12.30;99.90;;;12.81;100.00;97529.03;4999535;28;20467;-78
2023/03/30 08:46:10;;;;;;;6.60;2.40;;;12.40;99.90;;;12.85;100.00;97551.22;4984587;28;20469;-78
2023/03/30 08:48:43;;;;;;;5.43;2.30;;;12.40;99.90;;;12.80;100.00;97543.19;4999872;28;20552;-78
2023/03/30 08:51:24;;;;;;;4.90;1.73;;;12.30;99.90;;;12.79;100.00;97542.41;4985622;28;20973;-78
2023/03/30 08:54:00;;;;;;;7.43;2.50;;;12.30;99.90;;;12.75;100.00;97545.66;4989711;28;20837;-78
2023/03/30 08:56:34;;;;;;;2.03;1.60;;;12.30;99.90;;;12.73;100.00;97543.25;4975845;28;20500;-78
2023/03/30 08:59:17;;;;;;;3.40;1.90;;;12.20;99.90;;;12.79;100.00;97545.03;4980401;28;20896;-78
2023/03/30 09:01:56;;;;;;;5.23;2.20;;;12.30;99.90;;;12.80;100.00;97556.31;4978861;28;20979;-78
2023/03/30 09:04:41;;;;;;;5.87;2.43;;;12.30;99.90;;;12.82;100.00;97556.91;4995098;28;20565;-78
2023/03/30 09:07:18;;;;;;;9.70;2.50;;;12.30;99.90;;;12.79;100.00;97554.72;4995233;28;20488;-78
2023/03/30 09:09:51;;;;;;;5.23;2.10;;;12.20;99.90;;;12.87;100.00;97550.00;4996679;28;20463;-78
2023/03/30 09:12:33;;;;;;;4.00;2.07;;;12.40;99.90;;;12.92;100.00;97558.03;4990789;28;20568;-78
2023/03/30 09:15:09;;;;;;;6.70;1.97;;;12.40;99.90;;;12.97;100.00;97544.28;4998192;28;20574;-78
2023/03/30 09:17:44;;;;;;;9.47;1.90;;;12.40;99.90;;;13.01;100.00;97553.34;4996082;28;20463;-78
2023/03/30 09:20:22;;;;;;;5.37;1.93;;;12.50;99.90;;;13.01;100.00;97555.97;4991846;28;20523;-78
2023/03/30 09:22:53;;;;;;;4.40;1.90;;;12.60;99.90;;;13.05;100.00;97555.28;4988152;28;21045;-78
2023/03/30 09:25:33;;;;;;;8.30;2.47;;;12.60;99.90;;;13.06;100.00;97549.03;4985142;28;20968;-78
2023/03/30 09:28:17;;;;;;;8.33;2.30;;;12.60;99.90;;;13.08;100.00;97556.72;4989373;28;20476;-78
2023/03/30 09:30:52;;;;;;;3.97;2.13;;;12.60;99.90;;;13.13;100.00;97558.69;4978068;28;20543;-78
2023/03/30 09:33:34;;;;;;;3.97;1.70;;;12.70;99.90;;;13.15;100.00;97559.31;4980826;28;20484;-78
2023/03/30 09:36:15;;;;;;;6.90;2.33;;;12.60;99.90;;;13.11;100.00;97551.06;4985524;28;20489;-78
2023/03/30 09:38:45;;;;;;;4.07;1.73;;;12.60;99.90;;;13.17;100.00;97550.19;4987150;28;20466;-78
2023/03/30 09:41:47;;;;;;;7.43;2.00;;;12.70;99.90;;;13.20;100.00;97538.44;4985124;28;20453;-78
2023/03/30 09:44:29;;;;;;;6.70;2.30;;;12.80;99.90;;;13.23;100.00;97532.75;4980745;28;20979;-78
2023/03/30 09:47:02;;;;;;;2.07;1.73;;;12.60;99.90;;;13.32;100.00;97524.41;4986927;28;20460;-78
2023/03/30 09:49:39;;;;;;;3.60;1.90;;;12.80;99.90;;;13.38;100.00;97528.78;4978395;28;20579;-77
2023/03/30 09:52:24;;;;;;;4.40;1.70;;;12.90;99.90;;;13.44;100.00;97546.28;4978539;28;20987;-78
2023/03/30 09:54:53;;;;;;;5.03;1.83;;;12.90;99.90;;;13.45;100.00;97557.59;4977373;28;20551;-78
2023/03/30 09:57:29;;;;;;;5.90;1.93;;;12.90;99.90;;;13.39;100.00;97548.78;4981008;28;20602;-78
2023/03/30 10:00:04;;;;;;;6.93;1.87;;;13.00;99.90;;;13.40;100.00;97545.13;4980806;28;20464;-78
2023/03/30 10:02:33;;;;;;;4.47;2.10;;;12.90;99.90;;;13.37;100.00;97550.81;4986403;28;20544;-78
2023/03/30 10:05:06;;;;;;;8.90;1.73;;;12.90;99.90;;;13.36;100.00;97548.41;4979729;28;20475;-78
2023/03/30 10:07:42;;;;;;;7.47;1.93;;;12.90;99.90;;;13.38;100.00;97547.16;4992936;28;21009;-78
2023/03/30 10:10:27;;;;;;;10.10;2.13;;;12.90;99.90;;;13.41;100.00;97559.88;4996935;28;20456;-78
2023/03/30 10:13:03;;;;;;;5.13;2.07;;;13.00;99.90;;;13.42;100.00;97556.22;4986967;28;20598;-78
2023/03/30 10:15:36;;;;;;;5.00;1.80;;;13.00;99.90;;;13.46;100.00;97548.72;4987675;28;20570;-78
2023/03/30 10:18:25;;;;;;;6.50;1.90;;;13.00;99.90;;;13.45;100.00;97542.66;4990933;28;20461;-78
2023/03/30 10:21:02;;;;;;;8.27;1.80;;;12.90;99.90;;;13.48;100.00;97552.72;4986165;28;20555;-78
2023/03/30 10:23:38;;;;;;;2.23;1.63;;;13.00;99.90;;;13.50;100.00;97555.94;4988154;28;20504;-78
2023/03/30 10:26:17;;;;;;;5.30;2.07;;;13.00;99.90;;;13.52;100.00;97555.72;4981007;28;20497;-78
2023/03/30 10:28:56;;;;;;;4.30;1.40;;;13.10;99.90;;;13.53;100.00;97562.59;4991733;28;20455;-78
2023/03/30 10:31:27;;;;;;;5.43;1.80;;;13.00;99.90;;;13.52;100.00;97555.72;4985594;28;20970;-78
2023/03/30 10:34:01;;;;;;;9.80;2.10;;;13.10;99.90;;;13.48;100.00;97555.34;4980535;28;20572;-78
2023/03/30 10:36:39;;;;;;;4.33;2.33;;;13.00;99.90;;;13.53;100.00;97560.78;4988760;28;20489;-78
2023/03/30 10:39:18;;;;;;;5.13;1.60;;;13.00;99.90;;;13.59;100.00;97554.63;4991050;28;20492;-78
2023/03/30 10:41:49;;;;;;;5.03;2.03;;;13.10;99.90;;;13.66;100.00;97545.88;4989646;28;20470;-77
2023/03/30 10:44:25;;;;;;;2.90;1.93;;;13.20;99.90;;;13.75;100.00;97547.19;4986049;28;20489;-78